Time,TemperatureF,DewpointF,PressureIn,WindDirection,WindDirectionDegrees,WindSpeedMPH,WindSpeedGustMPH,Humidity,HourlyPrecipIn,Conditions,Clouds,dailyrainin,SoftwareType,DateUTC
2013-04-07 00:07:00,45.4,30.0,30.04,East,80,3.0,-999.0,55,-99.99,,,0.00,weatherlink.com 1.10,2013-04-07 04:07:00,
2013-04-07 00:22:00,45.1,30.0,30.03,WSW,240,6.0,-999.0,55,-99.99,,,0.00,weatherlink.com 1.10,2013-04-07 04:22:00,
2013-04-07 00:37:00,44.9,29.0,30.03,SSW,202,0.0,-999.0,55,-99.99,,,0.00,weatherlink.com 1.10,2013-04-07 04:37:00,
2013-04-07 00:52:00,44.5,29.0,30.03,South,182,4.0,-999.0,56,-99.99,,,0.00,weatherlink.com 1.10,2013-04-07 04:52:00,
2013-04-07 01:07:00,44.5,29.0,30.03,WSW,244,1.0,-999.0,56,-99.99,,,0.00,weatherlink.com 1.10,2013-04-07 05:07:00,
2013-04-07 01:22:00,44.5,29.0,30.02,SSW,193,3.0,-999.0,56,-99.99,,,0.00,weatherlink.com 1.10,2013-04-07 05:22:00,
2013-04-07 01:37:00,44.5,29.0,30.02,SW,216,2.0,-999.0,56,-99.99,,,0.00,weatherlink.com 1.10,2013-04-07 05:37:00,
2013-04-07 01:52:00,44.6,30.0,30.00,SSW,207,6.0,-999.0,56,-99.99,,,0.00,weatherlink.com 1.10,2013-04-07 05:52:00,
2013-04-07 04:03:00,43.1,30.0,30.00,North,9,0.0,-999.0,60,-99.99,,,0.00,weatherlink.com 1.10,2013-04-07 08:03:00,
2013-04-07 04:53:00,43.3,31.0,29.99,NW,308,8.0,-999.0,62,-99.99,,,0.00,weatherlink.com 1.10,2013-04-07 08:53:00,
2013-04-07 05:08:00,42.9,31.0,30.00,WNW,286,1.0,-999.0,63,-99.99,,,0.00,weatherlink.com 1.10,2013-04-07 09:08:00,
2013-04-07 05:23:00,42.6,31.0,30.00,NNW,340,2.0,-999.0,65,-99.99,,,0.00,weatherlink.com 1.10,2013-04-07 09:23:00,
2013-04-07 05:38:00,42.6,31.0,30.01,SSW,209,8.0,-999.0,65,-99.99,,,0.00,weatherlink.com 1.10,2013-04-07 09:38:00,
2013-04-07 05:53:00,42.6,32.0,30.00,SW,228,7.0,-999.0,66,-99.99,,,0.00,weatherlink.com 1.10,2013-04-07 09:53:00,
2013-04-07 06:08:00,42.2,32.0,30.01,WSW,250,4.0,-999.0,68,-99.99,,,0.00,weatherlink.com 1.10,2013-04-07 10:08:00,
2013-04-07 06:23:00,41.9,32.0,30.03,WSW,244,9.0,-999.0,69,-99.99,,,0.00,weatherlink.com 1.10,2013-04-07 10:23:00,
2013-04-07 06:38:00,41.8,33.0,30.03,NNW,328,3.0,-999.0,70,-99.99,,,0.00,weatherlink.com 1.10,2013-04-07 10:38:00,
2013-04-07 06:53:00,41.9,33.0,30.03,SW,225,0.0,-999.0,70,-99.99,,,0.00,weatherlink.com 1.10,2013-04-07 10:53:00,
2013-04-07 07:09:00,42.1,33.0,30.02,SW,221,0.0,-999.0,69,-99.99,,,0.00,weatherlink.com 1.10,2013-04-07 11:09:00,
2013-04-07 07:24:00,42.3,32.0,30.04,North,9,4.0,-999.0,68,-99.99,,,0.00,weatherlink.com 1.10,2013-04-07 11:24:00,
2013-04-07 08:09:00,43.8,33.0,30.05,WSW,248,6.0,-999.0,67,-99.99,,,0.00,weatherlink.com 1.10,2013-04-07 12:09:00,
2013-04-07 08:24:00,45.5,34.0,30.05,SE,146,2.0,-999.0,65,-99.99,,,0.00,weatherlink.com 1.10,2013-04-07 12:24:00,
2013-04-07 08:39:00,46.0,34.0,30.05,SW,219,3.0,-999.0,64,-99.99,,,0.00,weatherlink.com 1.10,2013-04-07 12:39:00,
2013-04-07 08:54:00,46.5,34.0,30.06,SW,228,13.0,-999.0,63,-99.99,,,0.00,weatherlink.com 1.10,2013-04-07 12:54:00,
2013-04-07 09:24:00,47.1,35.0,30.08,WSW,244,10.0,-999.0,63,-99.99,,,0.00,weatherlink.com 1.10,2013-04-07 13:24:00,
2013-04-07 09:54:00,47.1,35.0,30.07,South,186,7.0,-999.0,63,-99.99,,,0.00,weatherlink.com 1.10,2013-04-07 13:54:00,
2013-04-07 10:09:00,47.1,35.0,30.07,SW,236,5.0,-999.0,63,-99.99,,,0.00,weatherlink.com 1.10,2013-04-07 14:09:00,
2013-04-07 10:24:00,46.7,35.0,30.09,South,173,5.0,-999.0,64,-99.99,,,0.00,weatherlink.com 1.10,2013-04-07 14:24:00,
2013-04-07 10:39:00,48.8,36.0,30.09,SW,215,5.0,-999.0,62,-99.99,,,0.00,weatherlink.com 1.10,2013-04-07 14:39:00,
2013-04-07 10:54:00,48.0,35.0,30.08,West,271,1.0,-999.0,62,-99.99,,,0.00,weatherlink.com 1.10,2013-04-07 14:54:00,
2013-04-07 11:09:00,48.5,36.0,30.08,WSW,241,15.0,-999.0,62,-99.99,,,0.00,weatherlink.com 1.10,2013-04-07 15:09:00,
2013-04-07 11:24:00,49.2,37.0,30.09,SSE,166,4.0,-999.0,62,-99.99,,,0.00,weatherlink.com 1.10,2013-04-07 15:24:00,
2013-04-07 11:39:00,50.1,37.0,30.09,SSE,150,2.0,-999.0,60,-99.99,,,0.00,weatherlink.com 1.10,2013-04-07 15:39:00,
2013-04-07 11:54:00,52.5,36.0,30.08,SW,227,1.0,-999.0,54,-99.99,,,0.00,weatherlink.com 1.10,2013-04-07 15:54:00,
2013-04-07 12:09:00,53.5,37.0,30.05,SSE,147,1.0,-999.0,53,-99.99,,,0.00,weatherlink.com 1.10,2013-04-07 16:09:00,
2013-04-07 12:24:00,53.1,36.0,30.07,SW,218,6.0,-999.0,53,-99.99,,,0.00,weatherlink.com 1.10,2013-04-07 16:24:00,
2013-04-07 12:39:00,53.2,35.0,30.07,WSW,252,11.0,-999.0,51,-99.99,,,0.00,weatherlink.com 1.10,2013-04-07 16:39:00,
2013-04-07 12:54:00,55.7,34.0,30.05,West,274,5.0,-999.0,45,-99.99,,,0.00,weatherlink.com 1.10,2013-04-07 16:54:00,
2013-04-07 13:09:00,56.5,36.0,30.05,WSW,253,3.0,-999.0,46,-99.99,,,0.00,weatherlink.com 1.10,2013-04-07 17:09:00,
2013-04-07 13:24:00,57.0,33.0,30.03,North,350,2.0,-999.0,41,-99.99,,,0.00,weatherlink.com 1.10,2013-04-07 17:24:00,
2013-04-07 13:39:00,56.7,30.0,30.02,WNW,288,4.0,-999.0,36,-99.99,,,0.00,weatherlink.com 1.10,2013-04-07 17:39:00,
2013-04-07 13:54:00,57.8,35.0,30.02,South,189,1.0,-999.0,43,-99.99,,,0.00,weatherlink.com 1.10,2013-04-07 17:54:00,
2013-04-07 14:09:00,58.0,37.0,30.01,WSW,245,1.0,-999.0,46,-99.99,,,0.00,weatherlink.com 1.10,2013-04-07 18:09:00,
2013-04-07 14:24:00,58.7,35.0,30.00,South,188,2.0,-999.0,42,-99.99,,,0.00,weatherlink.com 1.10,2013-04-07 18:24:00,
2013-04-07 14:39:00,58.1,38.0,30.00,SW,222,9.0,-999.0,47,-99.99,,,0.00,weatherlink.com 1.10,2013-04-07 18:39:00,
2013-04-07 14:54:00,58.1,37.0,30.00,SSW,207,3.0,-999.0,45,-99.99,,,0.00,weatherlink.com 1.10,2013-04-07 18:54:00,
2013-04-07 15:09:00,59.2,36.0,29.99,SW,225,6.0,-999.0,43,-99.99,,,0.00,weatherlink.com 1.10,2013-04-07 19:09:00,
2013-04-07 15:24:00,59.0,35.0,30.00,SSW,208,0.0,-999.0,41,-99.99,,,0.00,weatherlink.com 1.10,2013-04-07 19:24:00,
2013-04-07 15:39:00,58.4,38.0,29.98,SSW,201,5.0,-999.0,47,-99.99,,,0.00,weatherlink.com 1.10,2013-04-07 19:39:00,
2013-04-07 15:54:00,57.6,37.0,29.98,SSW,208,8.0,-999.0,46,-99.99,,,0.00,weatherlink.com 1.10,2013-04-07 19:54:00,
2013-04-07 16:09:00,57.6,37.0,29.99,SSW,211,6.0,-999.0,47,-99.99,,,0.00,weatherlink.com 1.10,2013-04-07 20:09:00,
2013-04-07 16:24:00,57.3,38.0,29.99,South,184,0.0,-999.0,48,-99.99,,,0.00,weatherlink.com 1.10,2013-04-07 20:24:00,
2013-04-07 16:39:00,57.3,38.0,29.98,SSW,202,0.0,-999.0,48,-99.99,,,0.00,weatherlink.com 1.10,2013-04-07 20:39:00,
2013-04-07 17:09:00,56.9,38.0,29.98,SSW,205,6.0,-999.0,49,-99.99,,,0.00,weatherlink.com 1.10,2013-04-07 21:09:00,
2013-04-07 17:24:00,56.7,38.0,29.98,West,269,6.0,-999.0,49,-99.99,,,0.00,weatherlink.com 1.10,2013-04-07 21:24:00,
2013-04-07 17:39:00,56.6,38.0,29.99,SW,217,7.0,-999.0,50,-99.99,,,0.00,weatherlink.com 1.10,2013-04-07 21:39:00,
2013-04-07 17:54:00,56.7,38.0,29.99,SSW,196,2.0,-999.0,50,-99.99,,,0.00,weatherlink.com 1.10,2013-04-07 21:54:00,
2013-04-07 18:09:00,56.0,38.0,30.00,SSW,201,0.0,-999.0,52,-99.99,,,0.00,weatherlink.com 1.10,2013-04-07 22:09:00,
2013-04-07 18:24:00,56.0,38.0,30.00,SSW,208,3.0,-999.0,51,-99.99,,,0.00,weatherlink.com 1.10,2013-04-07 22:24:00,
2013-04-07 18:39:00,55.9,38.0,30.00,SSW,202,0.0,-999.0,52,-99.99,,,0.00,weatherlink.com 1.10,2013-04-07 22:39:00,
2013-04-07 18:54:00,55.1,38.0,30.00,WSW,243,0.0,-999.0,53,-99.99,,,0.00,weatherlink.com 1.10,2013-04-07 22:54:00,
2013-04-07 19:09:00,54.2,38.0,30.01,WNW,298,5.0,-999.0,55,-99.99,,,0.00,weatherlink.com 1.10,2013-04-07 23:09:00,
2013-04-07 19:24:00,54.1,38.0,30.01,NNE,23,0.0,-999.0,55,-99.99,,,0.00,weatherlink.com 1.10,2013-04-07 23:24:00,
2013-04-07 19:39:00,53.8,38.0,30.02,SE,128,0.0,-999.0,56,-99.99,,,0.00,weatherlink.com 1.10,2013-04-07 23:39:00,
2013-04-07 19:54:00,53.1,38.0,30.01,SSW,211,3.0,-999.0,57,-99.99,,,0.00,weatherlink.com 1.10,2013-04-07 23:54:00,
2013-04-07 20:09:00,52.5,38.0,30.03,West,259,2.0,-999.0,59,-99.99,,,0.00,weatherlink.com 1.10,2013-04-08 00:09:00,
2013-04-07 20:24:00,51.9,38.0,30.02,ESE,123,0.0,-999.0,60,-99.99,,,0.00,weatherlink.com 1.10,2013-04-08 00:24:00,
2013-04-07 20:54:00,50.5,38.0,30.02,WSW,244,0.0,-999.0,62,-99.99,,,0.00,weatherlink.com 1.10,2013-04-08 00:54:00,
2013-04-07 21:09:00,49.9,38.0,30.03,SSW,211,2.0,-999.0,63,-99.99,,,0.00,weatherlink.com 1.10,2013-04-08 01:09:00,
2013-04-07 21:24:00,49.1,38.0,30.02,South,180,0.0,-999.0,66,-99.99,,,0.00,weatherlink.com 1.10,2013-04-08 01:24:00,
2013-04-07 21:39:00,48.9,38.0,30.03,SSW,209,0.0,-999.0,67,-99.99,,,0.00,weatherlink.com 1.10,2013-04-08 01:39:00,
2013-04-07 21:54:00,48.5,38.0,30.04,SE,132,0.0,-999.0,68,-99.99,,,0.00,weatherlink.com 1.10,2013-04-08 01:54:00,
2013-04-07 22:09:00,48.0,39.0,30.03,ESE,111,0.0,-999.0,70,-99.99,,,0.00,weatherlink.com 1.10,2013-04-08 02:09:00,
2013-04-07 22:24:00,47.9,39.0,30.03,ENE,71,0.0,-999.0,71,-99.99,,,0.00,weatherlink.com 1.10,2013-04-08 02:24:00,
2013-04-07 22:39:00,47.7,39.0,30.03,SW,219,2.0,-999.0,72,-99.99,,,0.00,weatherlink.com 1.10,2013-04-08 02:39:00,
2013-04-07 22:54:00,48.0,39.0,30.03,NE,55,2.0,-999.0,72,-99.99,,,0.00,weatherlink.com 1.10,2013-04-08 02:54:00,
2013-04-07 23:09:00,48.0,40.0,30.03,ESE,117,0.0,-999.0,73,-99.99,,,0.00,weatherlink.com 1.10,2013-04-08 03:09:00,
2013-04-07 23:24:00,48.2,40.0,30.00,ESE,109,3.0,-999.0,72,-99.99,,,0.00,weatherlink.com 1.10,2013-04-08 03:24:00,
2013-04-07 23:54:00,48.5,39.0,30.00,SSW,203,5.0,-999.0,71,-99.99,,,0.00,weatherlink.com 1.10,2013-04-08 03:54:00,